createdAt,value
2022-11-24T00:01:15.853Z,40.41
2022-11-24T00:03:44.099Z,40.33
2022-11-24T00:06:13.917Z,40.51
2022-11-24T00:08:45.286Z,40.34
2022-11-24T00:11:15.817Z,40.37
2022-11-24T00:13:44.167Z,40.60
2022-11-24T00:16:15.065Z,40.47
2022-11-24T00:18:45.004Z,40.41
2022-11-24T00:21:13.391Z,40.38
2022-11-24T00:23:41.618Z,40.49
2022-11-24T00:26:13.712Z,40.38
2022-11-24T00:28:43.065Z,40.45
2022-11-24T00:31:18.188Z,40.45
2022-11-24T00:33:46.584Z,40.39
2022-11-24T00:36:15.392Z,40.42
2022-11-24T00:38:43.809Z,40.38
2022-11-24T00:41:13.815Z,40.39
2022-11-24T00:43:41.880Z,40.33
2022-11-24T00:46:10.155Z,40.37
2022-11-24T00:48:38.504Z,40.32
2022-11-24T00:51:09.104Z,40.44
2022-11-24T00:53:37.527Z,40.41
2022-11-24T00:56:05.960Z,40.31
2022-11-24T00:58:36.204Z,40.41
2022-11-24T01:01:08.334Z,40.33
2022-11-24T01:03:36.491Z,40.45
2022-11-24T01:06:05.796Z,40.33
2022-11-24T01:08:34.078Z,40.38
2022-11-24T01:11:14.221Z,40.44
2022-11-24T01:13:45.137Z,40.39
2022-11-24T01:16:18.027Z,40.19
2022-11-24T01:18:46.278Z,40.37
2022-11-24T01:21:14.908Z,40.30
2022-11-24T01:23:43.341Z,40.54
2022-11-24T01:26:14.413Z,40.47
2022-11-24T01:28:47.413Z,40.31
2022-11-24T01:31:17.012Z,40.37
2022-11-24T01:33:45.203Z,40.38
2022-11-24T01:36:13.318Z,40.32
2022-11-24T01:38:41.412Z,40.49
2022-11-24T01:41:13.598Z,40.49
2022-11-24T01:43:44.400Z,40.50
2022-11-24T01:46:18.926Z,40.33
2022-11-24T01:48:51.568Z,40.49
2022-11-24T01:51:23.779Z,40.39
2022-11-24T01:53:58.942Z,40.49
2022-11-24T01:56:28.669Z,40.43
2022-11-24T01:59:01.907Z,40.36
2022-11-24T02:01:31.568Z,40.46
2022-11-24T02:04:01.054Z,40.50
2022-11-24T02:06:32.181Z,40.35
2022-11-24T02:09:03.769Z,40.42
2022-11-24T02:11:36.167Z,40.28
2022-11-24T02:14:07.784Z,40.44
2022-11-24T02:16:38.002Z,40.34
2022-11-24T02:19:13.123Z,40.36
2022-11-24T02:21:41.278Z,40.39
2022-11-24T02:24:16.009Z,40.40
2022-11-24T02:26:48.117Z,40.43
2022-11-24T02:29:16.555Z,40.15
2022-11-24T02:31:49.910Z,40.38
2022-11-24T02:34:18.255Z,40.42
2022-11-24T02:36:46.287Z,40.31
2022-11-24T02:39:15.775Z,40.42
2022-11-24T02:41:50.640Z,40.57
2022-11-24T02:44:21.275Z,40.41
2022-11-24T02:46:49.327Z,40.44
2022-11-24T02:49:17.381Z,40.39
2022-11-24T02:51:46.309Z,40.39
2022-11-24T02:54:15.728Z,40.40
2022-11-24T02:56:45.212Z,40.37
2022-11-24T02:59:13.549Z,40.46
2022-11-24T03:01:41.955Z,40.57
2022-11-24T03:04:10.066Z,40.46
2022-11-24T03:06:38.480Z,40.46
2022-11-24T03:09:06.659Z,40.54
2022-11-24T03:11:34.795Z,40.37
2022-11-24T03:14:04.320Z,40.55
2022-11-24T03:16:33.115Z,40.58
2022-11-24T03:19:01.559Z,40.43
2022-11-24T03:21:30.057Z,40.44
2022-11-24T03:23:58.216Z,40.49
2022-11-24T03:26:26.907Z,40.35
2022-11-24T03:28:56.388Z,40.39
2022-11-24T03:31:26.579Z,40.42
2022-11-24T03:33:54.709Z,40.40
2022-11-24T03:36:22.751Z,40.51
2022-11-24T03:38:51.012Z,40.37
2022-11-24T03:41:19.148Z,40.34
2022-11-24T03:43:47.238Z,40.37
2022-11-24T03:46:15.338Z,40.46
2022-11-24T03:48:45.131Z,40.37
2022-11-24T03:51:13.216Z,40.60
2022-11-24T03:53:41.372Z,40.49
2022-11-24T03:56:09.547Z,40.40
2022-11-24T03:58:37.739Z,40.39
2022-11-24T04:01:05.791Z,40.42
2022-11-24T04:03:33.883Z,40.37
2022-11-24T04:06:03.575Z,40.39
2022-11-24T04:08:31.600Z,40.50
2022-11-24T04:10:59.680Z,40.48
2022-11-24T04:13:27.750Z,40.36
2022-11-24T04:15:56.052Z,40.40
2022-11-24T04:18:24.086Z,40.47
2022-11-24T04:20:52.376Z,40.40
2022-11-24T04:23:21.707Z,40.40
2022-11-24T04:25:49.828Z,40.53
2022-11-24T04:28:17.748Z,40.37
2022-11-24T04:30:45.675Z,40.37
2022-11-24T04:33:14.181Z,40.39
2022-11-24T04:35:42.221Z,40.67
2022-11-24T04:38:10.404Z,40.45
2022-11-24T04:40:40.083Z,40.39
2022-11-24T04:43:07.960Z,40.41
2022-11-24T04:45:35.908Z,40.48
2022-11-24T04:48:04.002Z,40.50
2022-11-24T04:50:32.172Z,40.54
2022-11-24T04:53:00.083Z,40.46
2022-11-24T04:55:28.029Z,40.49
2022-11-24T04:57:57.385Z,40.60
2022-11-24T05:00:25.369Z,40.42
2022-11-24T05:02:53.595Z,40.44
2022-11-24T05:05:21.611Z,40.37
2022-11-24T05:07:49.685Z,40.38
2022-11-24T05:10:36.433Z,40.57
2022-11-24T05:13:08.037Z,40.57
2022-11-24T05:15:37.774Z,40.59
2022-11-24T05:18:07.099Z,40.53
2022-11-24T05:20:35.250Z,40.54
2022-11-24T05:23:04.213Z,40.47
2022-11-24T05:25:32.856Z,40.62
2022-11-24T05:28:02.287Z,40.55
2022-11-24T05:30:32.220Z,40.59
2022-11-24T05:33:00.254Z,40.59
2022-11-24T05:35:28.256Z,40.69
2022-11-24T05:37:56.202Z,40.50
2022-11-24T05:40:24.150Z,40.49
2022-11-24T05:42:52.073Z,40.50
2022-11-24T05:45:22.411Z,40.54
2022-11-24T05:47:51.965Z,40.59
2022-11-24T05:50:21.758Z,40.46
2022-11-24T05:52:50.068Z,40.60
2022-11-24T05:55:20.040Z,40.63
2022-11-24T05:57:48.047Z,40.51
2022-11-24T06:00:18.295Z,40.65
2022-11-24T06:02:46.431Z,40.64
2022-11-24T06:05:15.880Z,40.59
2022-11-24T06:07:43.894Z,40.62
2022-11-24T06:10:11.957Z,40.71
2022-11-24T06:12:39.861Z,40.56
2022-11-24T06:15:08.756Z,40.61
2022-11-24T06:17:37.277Z,40.65
2022-11-24T06:20:06.159Z,40.70
2022-11-24T06:22:35.987Z,40.61
2022-11-24T06:25:04.239Z,40.59
2022-11-24T06:27:32.418Z,40.66
2022-11-24T06:30:00.848Z,40.60
2022-11-24T06:32:28.673Z,40.47
2022-11-24T06:34:56.561Z,40.71
2022-11-24T06:37:24.526Z,40.70
2022-11-24T06:39:53.751Z,40.64
2022-11-24T06:42:21.809Z,40.68
2022-11-24T06:44:49.934Z,40.55
2022-11-24T06:47:17.982Z,40.60
2022-11-24T06:49:45.811Z,40.66
2022-11-24T06:52:13.692Z,40.61
2022-11-24T06:54:41.571Z,40.48
2022-11-24T06:57:10.947Z,40.63
2022-11-24T06:59:38.795Z,40.58
2022-11-24T07:02:06.688Z,40.55
2022-11-24T07:04:34.824Z,40.63
2022-11-24T07:07:03.889Z,40.69
2022-11-24T07:09:31.733Z,40.61
2022-11-24T07:11:59.615Z,40.64
2022-11-24T07:14:29.010Z,40.75
2022-11-24T07:16:56.987Z,40.65
2022-11-24T07:19:25.401Z,40.65
2022-11-24T07:21:53.759Z,40.68
2022-11-24T07:24:21.977Z,40.64
2022-11-24T07:26:49.808Z,40.49
2022-11-24T07:29:18.147Z,40.66
2022-11-24T07:31:47.457Z,40.79
2022-11-24T07:34:15.652Z,40.56
2022-11-24T07:36:45.180Z,40.74
2022-11-24T07:39:13.152Z,40.60
2022-11-24T07:41:41.007Z,40.57
2022-11-24T07:44:09.146Z,40.65
2022-11-24T07:46:37.028Z,40.63
2022-11-24T07:49:06.584Z,40.51
2022-11-24T07:51:34.515Z,40.70
2022-11-24T07:54:02.351Z,40.71
2022-11-24T07:56:30.246Z,40.71
2022-11-24T07:58:58.116Z,40.71
2022-11-24T08:01:25.981Z,40.66
2022-11-24T08:03:54.028Z,40.50
2022-11-24T08:06:27.287Z,40.63
2022-11-24T08:08:57.235Z,40.64
2022-11-24T08:11:25.696Z,40.56
2022-11-24T08:13:53.580Z,40.75
2022-11-24T08:16:21.999Z,40.63
2022-11-24T08:18:54.892Z,40.69
2022-11-24T08:21:24.647Z,40.65
2022-11-24T08:23:56.134Z,40.71
2022-11-24T08:26:25.265Z,40.74
2022-11-24T08:28:56.243Z,40.77
2022-11-24T08:31:24.983Z,40.85
2022-11-24T08:33:52.939Z,40.70
2022-11-24T08:36:20.808Z,40.65
2022-11-24T08:38:54.726Z,40.66
2022-11-24T08:41:22.657Z,40.72
2022-11-24T08:43:50.555Z,40.69
2022-11-24T08:46:20.343Z,40.74
2022-11-24T08:48:50.159Z,40.63
2022-11-24T08:51:21.903Z,40.79
2022-11-24T08:53:55.422Z,40.73
2022-11-24T08:56:23.524Z,40.83
2022-11-24T08:58:51.504Z,40.64
2022-11-24T09:01:19.738Z,40.76
2022-11-24T09:03:51.026Z,40.68
2022-11-24T09:06:22.853Z,40.67
2022-11-24T09:08:52.691Z,40.72
2022-11-24T09:11:20.728Z,40.79
2022-11-24T09:13:48.572Z,40.68
2022-11-24T09:16:20.053Z,40.75
2022-11-24T09:18:48.585Z,40.84
2022-11-24T09:21:18.629Z,40.88
2022-11-24T09:23:48.494Z,40.64
2022-11-24T09:26:20.550Z,40.74
2022-11-24T09:28:48.891Z,40.83
2022-11-24T09:31:18.893Z,40.69
2022-11-24T09:33:47.357Z,40.88
2022-11-24T09:36:15.791Z,40.69
2022-11-24T09:38:43.988Z,40.66
2022-11-24T09:41:28.102Z,40.71
2022-11-24T09:44:08.503Z,40.71
2022-11-24T09:46:45.189Z,40.66
2022-11-24T09:49:25.768Z,40.82
2022-11-24T09:51:57.368Z,40.68
2022-11-24T09:54:29.351Z,40.73
2022-11-24T09:57:02.044Z,40.80
2022-11-24T09:59:29.944Z,40.75
2022-11-24T10:01:57.948Z,40.76
2022-11-24T10:04:28.639Z,40.66
2022-11-24T10:07:04.757Z,40.74
2022-11-24T10:09:54.451Z,40.90
2022-11-24T10:12:36.523Z,40.66
2022-11-24T10:15:34.810Z,40.68
2022-11-24T10:18:29.283Z,40.82
2022-11-24T10:21:11.317Z,40.81
2022-11-24T10:23:56.239Z,40.84
2022-11-24T10:26:35.034Z,40.72
2022-11-24T10:29:16.786Z,40.86
2022-11-24T10:31:46.582Z,40.72
2022-11-24T10:34:17.883Z,40.83
2022-11-24T10:36:53.100Z,40.73
2022-11-24T10:39:24.901Z,40.62
2022-11-24T10:41:58.791Z,40.85
2022-11-24T10:44:28.026Z,40.77
2022-11-24T10:46:56.090Z,40.80
2022-11-24T10:49:29.121Z,40.82
2022-11-24T10:52:09.777Z,40.84
2022-11-24T10:54:41.448Z,40.80
2022-11-24T10:57:09.435Z,40.80
2022-11-24T10:59:40.680Z,40.79
2022-11-24T11:02:33.847Z,40.86
2022-11-24T11:05:28.281Z,40.81
2022-11-24T11:08:19.774Z,40.74
2022-11-24T11:10:49.487Z,40.70
2022-11-24T11:13:25.910Z,40.76
2022-11-24T11:15:55.483Z,40.69
2022-11-24T11:18:26.593Z,40.67
2022-11-24T11:20:56.600Z,40.74
2022-11-24T11:23:28.706Z,40.81
2022-11-24T11:26:19.377Z,40.88
2022-11-24T11:34:53.126Z,40.84
2022-11-24T11:37:23.247Z,40.84
2022-11-24T11:39:52.854Z,40.59
2022-11-24T11:43:00.063Z,40.72
2022-11-24T11:45:18.262Z,40.70
2022-11-24T11:47:53.806Z,40.67
2022-11-24T11:50:26.922Z,40.75
2022-11-24T11:53:11.405Z,40.80
2022-11-24T11:55:50.216Z,40.85
2022-11-24T11:58:48.091Z,40.92
2022-11-24T12:01:31.075Z,40.91
2022-11-24T12:04:14.601Z,40.79
2022-11-24T12:07:00.731Z,40.83
2022-11-24T12:09:46.368Z,40.67
2022-11-24T12:12:51.622Z,40.80
2022-11-24T12:15:30.358Z,40.75
2022-11-24T12:18:21.488Z,40.78
2022-11-24T12:21:11.451Z,40.87
2022-11-24T12:23:53.165Z,40.79
2022-11-24T12:26:33.038Z,40.79
2022-11-24T12:29:17.327Z,40.78
2022-11-24T12:31:53.594Z,40.72
2022-11-24T12:34:32.730Z,40.80
2022-11-24T12:37:28.578Z,40.78
2022-11-24T12:40:03.198Z,40.77
2022-11-24T12:42:39.756Z,40.72
2022-11-24T12:45:17.400Z,40.88
2022-11-24T12:48:14.910Z,41.03
2022-11-24T12:50:47.048Z,40.70
2022-11-24T12:53:21.071Z,40.88
2022-11-24T12:55:49.565Z,40.71
2022-11-24T12:58:27.144Z,40.91
2022-11-24T13:01:09.307Z,40.86
2022-11-24T13:03:51.122Z,40.80
2022-11-24T13:06:22.032Z,40.79
2022-11-24T13:08:51.553Z,40.88
2022-11-24T13:11:42.398Z,40.98
2022-11-24T13:14:19.419Z,40.76
2022-11-24T13:17:28.155Z,40.89
2022-11-24T13:19:47.531Z,40.76
2022-11-24T13:22:18.127Z,40.75
2022-11-24T13:24:52.476Z,40.70
2022-11-24T13:27:29.627Z,40.91
2022-11-24T13:29:57.562Z,40.86
2022-11-24T13:32:51.654Z,40.93
2022-11-24T13:35:19.636Z,40.79
2022-11-24T13:37:53.268Z,40.90
2022-11-24T13:48:16.097Z,40.82
2022-11-24T13:51:39.318Z,40.96
2022-11-24T14:04:33.347Z,40.89
2022-11-24T14:11:18.886Z,41.06
2022-11-24T14:20:49.765Z,40.78
2022-11-24T14:23:53.527Z,40.91
2022-11-24T14:27:00.345Z,41.05
2022-11-24T14:30:23.257Z,41.12
2022-11-24T14:36:23.010Z,40.86
2022-11-24T14:45:35.535Z,41.14
2022-11-24T14:56:02.089Z,40.92
2022-11-24T15:02:14.545Z,40.91
2022-11-24T15:05:16.369Z,40.94
2022-11-24T15:24:23.359Z,40.98
2022-11-24T15:26:51.280Z,40.94
2022-11-24T15:29:21.057Z,40.94
2022-11-24T15:31:52.645Z,40.89
2022-11-24T15:34:21.020Z,40.95
2022-11-24T15:36:48.925Z,40.88
2022-11-24T15:39:16.883Z,40.90
2022-11-24T15:41:44.743Z,40.91
2022-11-24T15:44:12.640Z,41.01
2022-11-24T15:46:41.955Z,40.96
2022-11-24T15:49:09.884Z,40.88
2022-11-24T15:51:41.544Z,40.94
2022-11-24T15:54:14.971Z,40.99
2022-11-24T15:56:45.534Z,40.91
2022-11-24T15:59:20.172Z,40.95
2022-11-24T16:01:51.004Z,40.92
2022-11-24T16:04:19.077Z,41.00
2022-11-24T16:06:46.889Z,40.87
2022-11-24T16:09:17.412Z,40.96
2022-11-24T16:11:45.499Z,41.03
2022-11-24T16:14:13.487Z,40.91
2022-11-24T16:16:41.943Z,40.96
2022-11-24T16:19:12.328Z,40.94
2022-11-24T16:21:40.166Z,41.03
2022-11-24T16:24:08.727Z,40.98
2022-11-24T16:26:36.601Z,40.91
2022-11-24T16:29:04.570Z,40.88
2022-11-24T16:31:33.040Z,40.78
2022-11-24T16:34:01.056Z,41.00
2022-11-24T16:36:30.314Z,40.91
2022-11-24T16:39:00.470Z,41.04
2022-11-24T16:41:28.303Z,40.73
2022-11-24T16:43:59.016Z,40.94
2022-11-24T16:46:26.982Z,40.95
2022-11-24T16:48:56.094Z,41.00
2022-11-24T16:51:27.772Z,40.97
2022-11-24T16:54:00.554Z,40.92
2022-11-24T16:56:29.479Z,40.90
2022-11-24T16:58:57.562Z,40.98
2022-11-24T17:01:26.064Z,41.04
2022-11-24T17:03:54.122Z,40.99
2022-11-24T17:06:21.985Z,40.86
2022-11-24T17:08:50.074Z,40.89
2022-11-24T17:11:20.745Z,40.91
2022-11-24T17:13:49.244Z,40.96
2022-11-24T17:16:19.573Z,41.07
2022-11-24T17:18:47.974Z,41.02
2022-11-24T17:21:17.940Z,40.94
2022-11-24T17:23:46.193Z,40.95
2022-11-24T17:26:15.894Z,41.05
2022-11-24T17:28:45.576Z,41.08
2022-11-24T17:31:20.438Z,40.93
2022-11-24T17:33:48.486Z,41.04
2022-11-24T17:36:16.577Z,40.95
2022-11-24T17:38:44.437Z,41.10
2022-11-24T17:41:12.690Z,41.08
2022-11-24T17:43:41.060Z,41.04
2022-11-24T17:46:11.466Z,41.04
2022-11-24T17:48:41.088Z,41.33
2022-11-24T17:51:12.777Z,41.12
2022-11-24T17:53:42.226Z,41.15
2022-11-24T17:56:13.794Z,41.17
2022-11-24T17:58:43.227Z,41.16
2022-11-24T18:01:13.868Z,41.10
2022-11-24T18:03:42.298Z,41.10
2022-11-24T18:06:12.448Z,41.07
2022-11-24T18:08:43.038Z,41.14
2022-11-24T18:11:12.993Z,41.31
2022-11-24T18:13:56.736Z,41.09
2022-11-24T18:16:30.576Z,41.16
2022-11-24T18:19:08.507Z,41.02
2022-11-24T18:21:38.407Z,41.15
2022-11-24T18:24:06.636Z,41.29
2022-11-24T18:26:34.489Z,41.23
2022-11-24T18:29:02.517Z,41.31
2022-11-24T18:31:34.249Z,41.23
2022-11-24T18:34:02.885Z,41.23
2022-11-24T18:36:31.356Z,41.23
2022-11-24T18:39:01.110Z,41.16
2022-11-24T18:41:28.988Z,41.29
2022-11-24T18:43:56.872Z,41.41
2022-11-24T18:46:25.896Z,41.31
2022-11-24T18:48:56.199Z,41.36
2022-11-24T18:51:24.076Z,41.36
2022-11-24T18:53:54.471Z,41.42
2022-11-24T18:56:22.942Z,41.52
2022-11-24T18:58:53.706Z,41.36
2022-11-24T19:01:24.116Z,41.45
2022-11-24T19:03:54.499Z,41.49
2022-11-24T19:06:28.827Z,41.54
2022-11-24T19:08:57.565Z,41.47
2022-11-24T19:11:28.236Z,41.42
2022-11-24T19:13:57.125Z,41.45
2022-11-24T19:16:26.312Z,41.38
2022-11-24T19:18:57.267Z,41.52
2022-11-24T19:21:27.000Z,41.54
2022-11-24T19:23:58.548Z,41.41
2022-11-24T19:26:29.359Z,41.58
2022-11-24T19:28:57.264Z,41.56
2022-11-24T19:31:25.180Z,41.33
2022-11-24T19:33:54.733Z,41.47
2022-11-24T19:36:23.644Z,41.60
2022-11-24T19:38:54.921Z,41.57
2022-11-24T19:41:25.390Z,41.60
2022-11-24T19:43:54.802Z,41.52
2022-11-24T19:46:26.203Z,41.55
2022-11-24T19:48:56.295Z,41.53
2022-11-24T19:51:26.276Z,41.56
2022-11-24T19:53:55.591Z,41.64
2022-11-24T19:56:25.636Z,41.63
2022-11-24T19:58:54.534Z,41.63
2022-11-24T20:01:25.793Z,41.66
2022-11-24T20:03:59.098Z,41.68
2022-11-24T20:06:28.459Z,41.69
2022-11-24T20:08:58.692Z,41.49
2022-11-24T20:11:26.823Z,41.56
2022-11-24T20:13:56.028Z,41.59
2022-11-24T20:16:28.252Z,41.75
2022-11-24T20:18:57.446Z,41.72
2022-11-24T20:21:28.627Z,41.53
2022-11-24T20:24:00.419Z,41.73
2022-11-24T20:26:30.217Z,41.67
2022-11-24T20:28:59.391Z,41.64
2022-11-24T20:31:29.257Z,41.67
2022-11-24T20:33:57.583Z,41.65
2022-11-24T20:36:26.969Z,41.61
2022-11-24T20:38:55.201Z,41.74
2022-11-24T20:41:27.296Z,41.83
2022-11-24T20:43:57.538Z,41.75
2022-11-24T20:46:27.462Z,41.72
2022-11-24T20:48:56.365Z,41.70
2022-11-24T20:51:27.028Z,41.62
2022-11-24T20:53:57.317Z,41.91
2022-11-24T20:56:29.433Z,41.95
2022-11-24T20:58:57.682Z,41.90
2022-11-24T21:01:27.692Z,41.88
2022-11-24T21:03:57.405Z,41.86
2022-11-24T21:06:25.794Z,42.04
2022-11-24T21:08:54.655Z,42.01
2022-11-24T21:11:25.030Z,42.06
2022-11-24T21:13:54.573Z,42.12
2022-11-24T21:16:24.215Z,42.20
2022-11-24T21:18:53.985Z,42.13
2022-11-24T21:21:24.012Z,42.19
2022-11-24T21:23:52.199Z,42.23
2022-11-24T21:26:20.546Z,42.28
2022-11-24T21:28:48.747Z,42.19
2022-11-24T21:31:20.775Z,42.03
2022-11-24T21:33:50.628Z,42.08
2022-11-24T21:36:20.116Z,42.10
2022-11-24T21:38:51.999Z,42.00
2022-11-24T21:41:20.868Z,42.01
2022-11-24T21:43:49.985Z,42.06
2022-11-24T21:46:19.512Z,41.99
2022-11-24T21:48:47.458Z,42.16
2022-11-24T21:51:17.404Z,42.05
2022-11-24T21:53:46.608Z,42.08
2022-11-24T21:56:17.099Z,42.05
2022-11-24T21:58:47.354Z,42.06
2022-11-24T22:01:16.483Z,42.02
2022-11-24T22:03:46.122Z,42.00
2022-11-24T22:06:14.985Z,41.99
2022-11-24T22:08:42.863Z,41.93
2022-11-24T22:11:13.733Z,42.11
2022-11-24T22:13:41.764Z,42.05
2022-11-24T22:16:11.842Z,42.05
2022-11-24T22:18:41.334Z,42.11
2022-11-24T22:21:13.850Z,42.14
2022-11-24T22:23:41.728Z,42.01
2022-11-24T22:26:13.604Z,42.09
2022-11-24T22:28:41.924Z,42.03
2022-11-24T22:31:12.081Z,42.08
2022-11-24T22:33:40.214Z,42.13
2022-11-24T22:36:08.810Z,42.02
2022-11-24T22:38:38.967Z,42.14
2022-11-24T22:41:08.405Z,42.11
2022-11-24T22:43:37.693Z,41.88
2022-11-24T22:46:06.338Z,42.13
2022-11-24T22:48:34.466Z,42.02
2022-11-24T22:51:06.061Z,42.13
2022-11-24T22:53:34.571Z,42.06
2022-11-24T22:56:04.959Z,42.00
2022-11-24T22:58:33.432Z,42.10
2022-11-24T23:01:05.458Z,42.33
2022-11-24T23:03:33.759Z,42.08
2022-11-24T23:06:01.982Z,42.15
2022-11-24T23:08:29.947Z,42.09
2022-11-24T23:11:04.168Z,42.24
2022-11-24T23:13:32.450Z,42.05
2022-11-24T23:16:04.258Z,42.20
2022-11-24T23:18:32.640Z,42.10
2022-11-24T23:21:06.603Z,42.19
2022-11-24T23:23:35.015Z,42.13
2022-11-24T23:26:05.817Z,42.17
2022-11-24T23:28:34.157Z,42.08
2022-11-24T23:31:02.940Z,42.13
2022-11-24T23:33:31.673Z,42.04
2022-11-24T23:36:02.811Z,42.08
2022-11-24T23:38:32.838Z,42.10
2022-11-24T23:41:04.127Z,42.07
2022-11-24T23:43:34.100Z,42.26
2022-11-24T23:46:06.998Z,42.09
2022-11-24T23:48:35.624Z,42.11
2022-11-24T23:51:08.060Z,42.15
2022-11-24T23:53:37.263Z,42.09
2022-11-24T23:56:06.120Z,42.12
2022-11-24T23:58:35.773Z,42.20
